sensor_id;sensor_type;location;lat;lon;timestamp;P1;durP1;ratioP1;P2;durP2;ratioP2
52266;SDS011;38223;50.940;4.034;2023-06-14T00:02:00;9.40;;;6.20;;
52266;SDS011;38223;50.940;4.034;2023-06-14T00:04:30;9.95;;;6.75;;
52266;SDS011;38223;50.940;4.034;2023-06-14T00:07:07;7.87;;;6.05;;
52266;SDS011;38223;50.940;4.034;2023-06-14T00:09:37;8.35;;;5.92;;
52266;SDS011;38223;50.940;4.034;2023-06-14T00:12:07;5.87;;;5.33;;
52266;SDS011;38223;50.940;4.034;2023-06-14T00:14:41;10.78;;;5.80;;
52266;SDS011;38223;50.940;4.034;2023-06-14T00:17:12;9.83;;;6.42;;
52266;SDS011;38223;50.940;4.034;2023-06-14T00:19:44;11.35;;;6.40;;
52266;SDS011;38223;50.940;4.034;2023-06-14T00:22:14;8.35;;;6.17;;
52266;SDS011;38223;50.940;4.034;2023-06-14T00:24:45;10.45;;;6.40;;
52266;SDS011;38223;50.940;4.034;2023-06-14T00:27:16;7.53;;;5.87;;
52266;SDS011;38223;50.940;4.034;2023-06-14T00:29:47;7.95;;;6.60;;
52266;SDS011;38223;50.940;4.034;2023-06-14T00:32:21;12.68;;;5.92;;
52266;SDS011;38223;50.940;4.034;2023-06-14T00:34:50;9.08;;;6.78;;
52266;SDS011;38223;50.940;4.034;2023-06-14T00:37:26;8.83;;;6.90;;
52266;SDS011;38223;50.940;4.034;2023-06-14T00:39:57;8.48;;;6.70;;
52266;SDS011;38223;50.940;4.034;2023-06-14T00:42:31;7.35;;;6.15;;
52266;SDS011;38223;50.940;4.034;2023-06-14T00:45:00;8.68;;;6.78;;
52266;SDS011;38223;50.940;4.034;2023-06-14T00:47:34;7.35;;;6.47;;
52266;SDS011;38223;50.940;4.034;2023-06-14T00:50:06;9.38;;;6.45;;
52266;SDS011;38223;50.940;4.034;2023-06-14T00:52:35;9.20;;;7.12;;
52266;SDS011;38223;50.940;4.034;2023-06-14T00:55:08;10.35;;;7.03;;
52266;SDS011;38223;50.940;4.034;2023-06-14T00:57:39;11.15;;;7.55;;
52266;SDS011;38223;50.940;4.034;2023-06-14T01:00:11;7.58;;;6.87;;
52266;SDS011;38223;50.940;4.034;2023-06-14T01:02:42;11.55;;;7.12;;
52266;SDS011;38223;50.940;4.034;2023-06-14T01:05:11;12.82;;;7.25;;
52266;SDS011;38223;50.940;4.034;2023-06-14T01:07:59;9.00;;;7.47;;
52266;SDS011;38223;50.940;4.034;2023-06-14T01:11:02;8.00;;;7.20;;
52266;SDS011;38223;50.940;4.034;2023-06-14T01:13:35;8.55;;;7.03;;
52266;SDS011;38223;50.940;4.034;2023-06-14T01:16:09;8.20;;;7.42;;
52266;SDS011;38223;50.940;4.034;2023-06-14T01:18:39;10.85;;;7.22;;
52266;SDS011;38223;50.940;4.034;2023-06-14T01:21:22;9.48;;;7.25;;
52266;SDS011;38223;50.940;4.034;2023-06-14T01:23:52;10.72;;;7.12;;
52266;SDS011;38223;50.940;4.034;2023-06-14T01:26:30;8.55;;;7.03;;
52266;SDS011;38223;50.940;4.034;2023-06-14T01:29:02;10.43;;;7.25;;
52266;SDS011;38223;50.940;4.034;2023-06-14T01:31:35;12.45;;;7.15;;
52266;SDS011;38223;50.940;4.034;2023-06-14T01:34:05;7.75;;;7.12;;
52266;SDS011;38223;50.940;4.034;2023-06-14T01:36:37;7.37;;;6.67;;
52266;SDS011;38223;50.940;4.034;2023-06-14T01:39:14;8.75;;;6.50;;
52266;SDS011;38223;50.940;4.034;2023-06-14T01:41:44;8.50;;;6.83;;
52266;SDS011;38223;50.940;4.034;2023-06-14T01:44:19;8.68;;;6.47;;
52266;SDS011;38223;50.940;4.034;2023-06-14T01:46:49;8.78;;;6.60;;
52266;SDS011;38223;50.940;4.034;2023-06-14T01:49:21;9.25;;;6.60;;
52266;SDS011;38223;50.940;4.034;2023-06-14T01:51:52;7.05;;;6.45;;
52266;SDS011;38223;50.940;4.034;2023-06-14T01:54:25;8.93;;;6.40;;
52266;SDS011;38223;50.940;4.034;2023-06-14T01:56:59;12.95;;;7.05;;
52266;SDS011;38223;50.940;4.034;2023-06-14T01:59:28;10.55;;;6.62;;
52266;SDS011;38223;50.940;4.034;2023-06-14T02:02:00;7.40;;;6.70;;
52266;SDS011;38223;50.940;4.034;2023-06-14T02:04:33;7.83;;;7.03;;
52266;SDS011;38223;50.940;4.034;2023-06-14T02:07:02;13.10;;;6.80;;
52266;SDS011;38223;50.940;4.034;2023-06-14T02:09:33;8.50;;;6.75;;
52266;SDS011;38223;50.940;4.034;2023-06-14T02:12:06;7.90;;;7.28;;
52266;SDS011;38223;50.940;4.034;2023-06-14T02:14:36;10.20;;;7.20;;
52266;SDS011;38223;50.940;4.034;2023-06-14T02:17:10;8.68;;;6.97;;
52266;SDS011;38223;50.940;4.034;2023-06-14T02:19:39;7.95;;;6.55;;
52266;SDS011;38223;50.940;4.034;2023-06-14T02:22:10;12.88;;;8.13;;
52266;SDS011;38223;50.940;4.034;2023-06-14T02:24:43;9.28;;;7.00;;
52266;SDS011;38223;50.940;4.034;2023-06-14T02:27:12;8.53;;;7.08;;
52266;SDS011;38223;50.940;4.034;2023-06-14T02:29:46;9.00;;;7.40;;
52266;SDS011;38223;50.940;4.034;2023-06-14T02:32:19;8.65;;;7.47;;
52266;SDS011;38223;50.940;4.034;2023-06-14T02:34:52;10.18;;;7.58;;
52266;SDS011;38223;50.940;4.034;2023-06-14T02:37:35;8.40;;;7.70;;
52266;SDS011;38223;50.940;4.034;2023-06-14T02:40:05;8.08;;;7.40;;
52266;SDS011;38223;50.940;4.034;2023-06-14T02:42:35;12.70;;;7.37;;
52266;SDS011;38223;50.940;4.034;2023-06-14T02:45:05;7.97;;;7.28;;
52266;SDS011;38223;50.940;4.034;2023-06-14T02:47:36;10.43;;;7.55;;
52266;SDS011;38223;50.940;4.034;2023-06-14T02:50:13;8.58;;;7.78;;
52266;SDS011;38223;50.940;4.034;2023-06-14T02:52:48;10.65;;;7.83;;
52266;SDS011;38223;50.940;4.034;2023-06-14T02:55:21;8.60;;;7.70;;
52266;SDS011;38223;50.940;4.034;2023-06-14T02:57:52;8.80;;;7.60;;
52266;SDS011;38223;50.940;4.034;2023-06-14T03:00:23;8.80;;;7.37;;
52266;SDS011;38223;50.940;4.034;2023-06-14T03:02:56;8.08;;;7.28;;
52266;SDS011;38223;50.940;4.034;2023-06-14T03:05:30;8.75;;;7.95;;
52266;SDS011;38223;50.940;4.034;2023-06-14T03:08:01;9.98;;;7.92;;
52266;SDS011;38223;50.940;4.034;2023-06-14T03:10:34;7.92;;;7.12;;
52266;SDS011;38223;50.940;4.034;2023-06-14T03:13:03;7.95;;;7.20;;
52266;SDS011;38223;50.940;4.034;2023-06-14T03:15:35;8.98;;;7.50;;
52266;SDS011;38223;50.940;4.034;2023-06-14T03:18:05;8.45;;;7.60;;
52266;SDS011;38223;50.940;4.034;2023-06-14T03:20:41;10.75;;;7.03;;
52266;SDS011;38223;50.940;4.034;2023-06-14T03:23:12;8.38;;;7.55;;
52266;SDS011;38223;50.940;4.034;2023-06-14T03:25:43;7.83;;;7.12;;
52266;SDS011;38223;50.940;4.034;2023-06-14T03:28:19;7.47;;;6.78;;
52266;SDS011;38223;50.940;4.034;2023-06-14T03:30:50;8.45;;;7.75;;
52266;SDS011;38223;50.940;4.034;2023-06-14T03:33:24;8.65;;;7.37;;
52266;SDS011;38223;50.940;4.034;2023-06-14T03:35:54;8.50;;;7.70;;
52266;SDS011;38223;50.940;4.034;2023-06-14T03:38:27;8.05;;;7.25;;
52266;SDS011;38223;50.940;4.034;2023-06-14T03:40:58;9.15;;;7.40;;
52266;SDS011;38223;50.940;4.034;2023-06-14T03:43:34;7.70;;;7.00;;
52266;SDS011;38223;50.940;4.034;2023-06-14T03:46:04;8.18;;;7.37;;
52266;SDS011;38223;50.940;4.034;2023-06-14T03:48:33;8.38;;;7.45;;
52266;SDS011;38223;50.940;4.034;2023-06-14T03:51:05;11.08;;;7.47;;
52266;SDS011;38223;50.940;4.034;2023-06-14T03:53:36;7.78;;;7.08;;
52266;SDS011;38223;50.940;4.034;2023-06-14T03:56:09;12.93;;;7.37;;
52266;SDS011;38223;50.940;4.034;2023-06-14T03:58:39;9.63;;;7.95;;
52266;SDS011;38223;50.940;4.034;2023-06-14T04:01:12;9.40;;;7.10;;
52266;SDS011;38223;50.940;4.034;2023-06-14T04:03:45;8.45;;;7.20;;
52266;SDS011;38223;50.940;4.034;2023-06-14T04:06:19;13.60;;;7.15;;
52266;SDS011;38223;50.940;4.034;2023-06-14T04:08:49;10.28;;;7.20;;
52266;SDS011;38223;50.940;4.034;2023-06-14T04:11:25;11.22;;;7.33;;
52266;SDS011;38223;50.940;4.034;2023-06-14T04:13:55;13.10;;;7.45;;
52266;SDS011;38223;50.940;4.034;2023-06-14T04:16:28;10.82;;;7.87;;
52266;SDS011;38223;50.940;4.034;2023-06-14T04:18:58;12.47;;;7.37;;
52266;SDS011;38223;50.940;4.034;2023-06-14T04:21:29;10.15;;;7.28;;
52266;SDS011;38223;50.940;4.034;2023-06-14T04:24:02;9.90;;;6.70;;
52266;SDS011;38223;50.940;4.034;2023-06-14T04:26:35;7.80;;;6.97;;
52266;SDS011;38223;50.940;4.034;2023-06-14T04:29:06;9.98;;;7.05;;
52266;SDS011;38223;50.940;4.034;2023-06-14T04:31:38;8.00;;;6.85;;
52266;SDS011;38223;50.940;4.034;2023-06-14T04:34:11;12.13;;;6.97;;
52266;SDS011;38223;50.940;4.034;2023-06-14T04:36:45;8.50;;;7.10;;
52266;SDS011;38223;50.940;4.034;2023-06-14T04:39:18;7.70;;;7.10;;
52266;SDS011;38223;50.940;4.034;2023-06-14T04:41:50;7.28;;;6.58;;
52266;SDS011;38223;50.940;4.034;2023-06-14T04:44:23;7.50;;;6.58;;
52266;SDS011;38223;50.940;4.034;2023-06-14T04:46:53;12.03;;;7.00;;
52266;SDS011;38223;50.940;4.034;2023-06-14T04:49:27;18.85;;;7.50;;
52266;SDS011;38223;50.940;4.034;2023-06-14T04:51:58;8.38;;;6.78;;
52266;SDS011;38223;50.940;4.034;2023-06-14T04:54:32;15.18;;;7.17;;
52266;SDS011;38223;50.940;4.034;2023-06-14T04:57:08;9.30;;;7.55;;
52266;SDS011;38223;50.940;4.034;2023-06-14T04:59:41;9.43;;;7.95;;
52266;SDS011;38223;50.940;4.034;2023-06-14T05:02:13;7.70;;;6.00;;
52266;SDS011;38223;50.940;4.034;2023-06-14T05:04:46;20.37;;;7.85;;
52266;SDS011;38223;50.940;4.034;2023-06-14T05:07:19;20.23;;;7.15;;
52266;SDS011;38223;50.940;4.034;2023-06-14T05:09:52;49.88;;;10.05;;
52266;SDS011;38223;50.940;4.034;2023-06-14T05:12:22;10.28;;;7.50;;
52266;SDS011;38223;50.940;4.034;2023-06-14T05:14:55;18.27;;;7.85;;
52266;SDS011;38223;50.940;4.034;2023-06-14T05:17:24;17.30;;;7.22;;
52266;SDS011;38223;50.940;4.034;2023-06-14T05:19:57;16.00;;;7.12;;
52266;SDS011;38223;50.940;4.034;2023-06-14T05:22:29;11.45;;;7.20;;
52266;SDS011;38223;50.940;4.034;2023-06-14T05:25:01;7.78;;;6.42;;
52266;SDS011;38223;50.940;4.034;2023-06-14T05:27:30;8.53;;;7.12;;
52266;SDS011;38223;50.940;4.034;2023-06-14T05:30:03;10.45;;;6.25;;
52266;SDS011;38223;50.940;4.034;2023-06-14T05:32:36;8.10;;;6.47;;
52266;SDS011;38223;50.940;4.034;2023-06-14T05:35:11;7.45;;;6.58;;
52266;SDS011;38223;50.940;4.034;2023-06-14T05:37:41;8.95;;;6.58;;
52266;SDS011;38223;50.940;4.034;2023-06-14T05:40:11;8.08;;;7.17;;
52266;SDS011;38223;50.940;4.034;2023-06-14T05:42:39;7.90;;;6.45;;
52266;SDS011;38223;50.940;4.034;2023-06-14T05:45:11;15.68;;;7.22;;
52266;SDS011;38223;50.940;4.034;2023-06-14T05:47:41;11.08;;;6.78;;
52266;SDS011;38223;50.940;4.034;2023-06-14T05:50:19;13.20;;;6.30;;
52266;SDS011;38223;50.940;4.034;2023-06-14T05:52:49;9.90;;;7.08;;
52266;SDS011;38223;50.940;4.034;2023-06-14T05:55:19;10.50;;;6.90;;
52266;SDS011;38223;50.940;4.034;2023-06-14T05:57:50;12.65;;;7.00;;
52266;SDS011;38223;50.940;4.034;2023-06-14T06:00:26;12.23;;;6.42;;
52266;SDS011;38223;50.940;4.034;2023-06-14T06:02:54;8.95;;;7.25;;
52266;SDS011;38223;50.940;4.034;2023-06-14T06:08:13;8.95;;;7.58;;
52266;SDS011;38223;50.940;4.034;2023-06-14T06:10:44;10.10;;;7.78;;
52266;SDS011;38223;50.940;4.034;2023-06-14T06:13:14;8.90;;;7.42;;
52266;SDS011;38223;50.940;4.034;2023-06-14T06:15:48;10.18;;;8.08;;
52266;SDS011;38223;50.940;4.034;2023-06-14T06:18:23;11.18;;;7.30;;
52266;SDS011;38223;50.940;4.034;2023-06-14T06:20:58;13.03;;;7.40;;
52266;SDS011;38223;50.940;4.034;2023-06-14T06:23:28;8.28;;;7.30;;
52266;SDS011;38223;50.940;4.034;2023-06-14T06:26:01;7.05;;;6.35;;
52266;SDS011;38223;50.940;4.034;2023-06-14T06:28:37;8.10;;;7.40;;
52266;SDS011;38223;50.940;4.034;2023-06-14T06:33:48;10.10;;;6.60;;
52266;SDS011;38223;50.940;4.034;2023-06-14T06:36:21;11.10;;;7.35;;
52266;SDS011;38223;50.940;4.034;2023-06-14T06:38:51;7.70;;;6.92;;
52266;SDS011;38223;50.940;4.034;2023-06-14T06:41:29;13.28;;;7.20;;
52266;SDS011;38223;50.940;4.034;2023-06-14T06:44:02;10.63;;;7.03;;
52266;SDS011;38223;50.940;4.034;2023-06-14T06:46:41;8.70;;;7.17;;
52266;SDS011;38223;50.940;4.034;2023-06-14T06:49:13;11.40;;;7.28;;
52266;SDS011;38223;50.940;4.034;2023-06-14T06:52:05;9.28;;;7.65;;
52266;SDS011;38223;50.940;4.034;2023-06-14T06:54:38;63.48;;;10.13;;
52266;SDS011;38223;50.940;4.034;2023-06-14T06:57:10;14.90;;;7.40;;
52266;SDS011;38223;50.940;4.034;2023-06-14T06:59:41;10.98;;;5.97;;
52266;SDS011;38223;50.940;4.034;2023-06-14T07:02:11;7.58;;;6.85;;
52266;SDS011;38223;50.940;4.034;2023-06-14T07:04:42;10.23;;;6.65;;
52266;SDS011;38223;50.940;4.034;2023-06-14T07:07:19;8.98;;;6.95;;
52266;SDS011;38223;50.940;4.034;2023-06-14T07:09:52;10.03;;;6.40;;
52266;SDS011;38223;50.940;4.034;2023-06-14T07:12:23;9.50;;;6.85;;
52266;SDS011;38223;50.940;4.034;2023-06-14T07:14:54;7.40;;;6.70;;
52266;SDS011;38223;50.940;4.034;2023-06-14T07:17:24;13.22;;;6.28;;
52266;SDS011;38223;50.940;4.034;2023-06-14T07:19:58;13.28;;;6.30;;
52266;SDS011;38223;50.940;4.034;2023-06-14T07:22:28;11.95;;;6.20;;
52266;SDS011;38223;50.940;4.034;2023-06-14T07:25:06;9.43;;;5.95;;
52266;SDS011;38223;50.940;4.034;2023-06-14T07:27:44;8.45;;;6.33;;
52266;SDS011;38223;50.940;4.034;2023-06-14T07:30:15;18.20;;;6.97;;
52266;SDS011;38223;50.940;4.034;2023-06-14T07:32:47;9.68;;;7.15;;
52266;SDS011;38223;50.940;4.034;2023-06-14T07:35:21;7.30;;;5.70;;
52266;SDS011;38223;50.940;4.034;2023-06-14T07:37:53;14.53;;;6.47;;
52266;SDS011;38223;50.940;4.034;2023-06-14T07:40:24;10.05;;;6.67;;
52266;SDS011;38223;50.940;4.034;2023-06-14T07:42:53;11.97;;;6.40;;
52266;SDS011;38223;50.940;4.034;2023-06-14T07:45:27;12.35;;;6.53;;
52266;SDS011;38223;50.940;4.034;2023-06-14T07:47:55;8.90;;;6.20;;
52266;SDS011;38223;50.940;4.034;2023-06-14T07:50:31;8.98;;;5.80;;
52266;SDS011;38223;50.940;4.034;2023-06-14T07:53:00;7.03;;;5.75;;
52266;SDS011;38223;50.940;4.034;2023-06-14T07:55:35;6.40;;;5.80;;
52266;SDS011;38223;50.940;4.034;2023-06-14T07:58:08;7.87;;;6.00;;
52266;SDS011;38223;50.940;4.034;2023-06-14T08:00:40;8.43;;;5.92;;
52266;SDS011;38223;50.940;4.034;2023-06-14T08:03:13;6.10;;;5.53;;
52266;SDS011;38223;50.940;4.034;2023-06-14T08:05:47;6.40;;;5.78;;
52266;SDS011;38223;50.940;4.034;2023-06-14T08:08:22;10.55;;;5.95;;
52266;SDS011;38223;50.940;4.034;2023-06-14T08:10:58;10.55;;;6.00;;
52266;SDS011;38223;50.940;4.034;2023-06-14T08:13:31;18.45;;;6.25;;
52266;SDS011;38223;50.940;4.034;2023-06-14T08:16:06;9.10;;;6.08;;
52266;SDS011;38223;50.940;4.034;2023-06-14T08:18:45;6.70;;;5.83;;
52266;SDS011;38223;50.940;4.034;2023-06-14T08:24:00;7.72;;;5.80;;
52266;SDS011;38223;50.940;4.034;2023-06-14T08:26:30;11.70;;;6.05;;
52266;SDS011;38223;50.940;4.034;2023-06-14T08:29:03;10.50;;;5.33;;
52266;SDS011;38223;50.940;4.034;2023-06-14T08:31:36;12.53;;;5.62;;
52266;SDS011;38223;50.940;4.034;2023-06-14T08:34:08;9.88;;;5.45;;
52266;SDS011;38223;50.940;4.034;2023-06-14T08:36:41;9.73;;;5.72;;
52266;SDS011;38223;50.940;4.034;2023-06-14T08:39:12;10.95;;;5.85;;
52266;SDS011;38223;50.940;4.034;2023-06-14T08:44:33;13.93;;;6.20;;
52266;SDS011;38223;50.940;4.034;2023-06-14T08:47:04;6.05;;;5.40;;
52266;SDS011;38223;50.940;4.034;2023-06-14T08:49:42;9.63;;;5.72;;
52266;SDS011;38223;50.940;4.034;2023-06-14T08:52:18;6.12;;;5.58;;
52266;SDS011;38223;50.940;4.034;2023-06-14T08:54:53;14.68;;;5.80;;
52266;SDS011;38223;50.940;4.034;2023-06-14T08:57:31;9.75;;;5.42;;
52266;SDS011;38223;50.940;4.034;2023-06-14T09:00:03;9.25;;;5.67;;
52266;SDS011;38223;50.940;4.034;2023-06-14T09:02:40;7.75;;;5.58;;
52266;SDS011;38223;50.940;4.034;2023-06-14T09:05:13;7.05;;;5.55;;
52266;SDS011;38223;50.940;4.034;2023-06-14T09:07:45;9.03;;;5.95;;
52266;SDS011;38223;50.940;4.034;2023-06-14T09:10:16;5.78;;;5.28;;
52266;SDS011;38223;50.940;4.034;2023-06-14T09:12:52;9.35;;;5.87;;
52266;SDS011;38223;50.940;4.034;2023-06-14T09:15:22;9.80;;;5.03;;
52266;SDS011;38223;50.940;4.034;2023-06-14T09:17:54;8.03;;;5.42;;
52266;SDS011;38223;50.940;4.034;2023-06-14T09:20:25;11.57;;;5.90;;
52266;SDS011;38223;50.940;4.034;2023-06-14T09:23:00;12.18;;;5.65;;
52266;SDS011;38223;50.940;4.034;2023-06-14T09:25:41;7.28;;;5.28;;
52266;SDS011;38223;50.940;4.034;2023-06-14T09:28:13;9.18;;;5.28;;
52266;SDS011;38223;50.940;4.034;2023-06-14T09:30:46;14.20;;;5.87;;
52266;SDS011;38223;50.940;4.034;2023-06-14T09:33:19;9.90;;;5.75;;
52266;SDS011;38223;50.940;4.034;2023-06-14T09:35:54;6.97;;;5.30;;
52266;SDS011;38223;50.940;4.034;2023-06-14T09:38:24;8.70;;;4.58;;
52266;SDS011;38223;50.940;4.034;2023-06-14T09:41:05;6.12;;;4.92;;
52266;SDS011;38223;50.940;4.034;2023-06-14T09:43:31;6.35;;;4.70;;
52266;SDS011;38223;50.940;4.034;2023-06-14T09:46:08;8.85;;;5.08;;
52266;SDS011;38223;50.940;4.034;2023-06-14T09:48:38;13.05;;;5.53;;
52266;SDS011;38223;50.940;4.034;2023-06-14T09:51:12;5.67;;;5.17;;
52266;SDS011;38223;50.940;4.034;2023-06-14T09:53:49;11.33;;;5.35;;
52266;SDS011;38223;50.940;4.034;2023-06-14T09:56:23;6.92;;;5.30;;
52266;SDS011;38223;50.940;4.034;2023-06-14T09:58:57;10.38;;;5.25;;
52266;SDS011;38223;50.940;4.034;2023-06-14T10:01:31;14.28;;;5.72;;
52266;SDS011;38223;50.940;4.034;2023-06-14T10:04:06;8.50;;;5.35;;
52266;SDS011;38223;50.940;4.034;2023-06-14T10:06:43;10.45;;;5.37;;
52266;SDS011;38223;50.940;4.034;2023-06-14T10:09:14;10.90;;;6.15;;
52266;SDS011;38223;50.940;4.034;2023-06-14T10:11:49;11.97;;;5.50;;
52266;SDS011;38223;50.940;4.034;2023-06-14T10:14:22;6.30;;;5.05;;
52266;SDS011;38223;50.940;4.034;2023-06-14T10:17:08;13.10;;;5.60;;
52266;SDS011;38223;50.940;4.034;2023-06-14T10:19:44;12.05;;;6.00;;
52266;SDS011;38223;50.940;4.034;2023-06-14T10:22:56;10.70;;;5.15;;
52266;SDS011;38223;50.940;4.034;2023-06-14T10:25:06;10.30;;;5.97;;
52266;SDS011;38223;50.940;4.034;2023-06-14T10:27:38;15.70;;;6.75;;
52266;SDS011;38223;50.940;4.034;2023-06-14T10:30:10;7.90;;;5.25;;
52266;SDS011;38223;50.940;4.034;2023-06-14T10:33:15;9.68;;;5.60;;
52266;SDS011;38223;50.940;4.034;2023-06-14T10:35:23;8.60;;;5.50;;
52266;SDS011;38223;50.940;4.034;2023-06-14T10:37:53;9.65;;;6.40;;
52266;SDS011;38223;50.940;4.034;2023-06-14T10:40:30;9.55;;;5.50;;
52266;SDS011;38223;50.940;4.034;2023-06-14T10:43:01;12.05;;;5.53;;
52266;SDS011;38223;50.940;4.034;2023-06-14T10:45:33;12.37;;;6.03;;
52266;SDS011;38223;50.940;4.034;2023-06-14T10:48:09;8.83;;;5.00;;
52266;SDS011;38223;50.940;4.034;2023-06-14T10:50:38;10.58;;;5.15;;
52266;SDS011;38223;50.940;4.034;2023-06-14T10:53:29;13.03;;;5.55;;
52266;SDS011;38223;50.940;4.034;2023-06-14T10:55:55;9.63;;;5.08;;
52266;SDS011;38223;50.940;4.034;2023-06-14T10:58:26;7.20;;;5.17;;
52266;SDS011;38223;50.940;4.034;2023-06-14T11:01:00;7.25;;;4.92;;
52266;SDS011;38223;50.940;4.034;2023-06-14T11:03:52;7.28;;;4.67;;
52266;SDS011;38223;50.940;4.034;2023-06-14T11:06:22;11.97;;;5.53;;
52266;SDS011;38223;50.940;4.034;2023-06-14T11:12:04;6.03;;;4.83;;
52266;SDS011;38223;50.940;4.034;2023-06-14T11:14:38;11.90;;;5.30;;
52266;SDS011;38223;50.940;4.034;2023-06-14T11:17:13;7.28;;;4.33;;
52266;SDS011;38223;50.940;4.034;2023-06-14T11:19:46;9.83;;;4.80;;
52266;SDS011;38223;50.940;4.034;2023-06-14T11:22:17;7.70;;;4.75;;
52266;SDS011;38223;50.940;4.034;2023-06-14T11:24:45;8.10;;;4.65;;
52266;SDS011;38223;50.940;4.034;2023-06-14T11:27:15;11.03;;;4.70;;
52266;SDS011;38223;50.940;4.034;2023-06-14T11:29:50;22.62;;;5.87;;
52266;SDS011;38223;50.940;4.034;2023-06-14T11:32:22;5.10;;;4.60;;
52266;SDS011;38223;50.940;4.034;2023-06-14T11:34:51;8.70;;;5.08;;
52266;SDS011;38223;50.940;4.034;2023-06-14T11:37:21;8.15;;;4.33;;
52266;SDS011;38223;50.940;4.034;2023-06-14T11:39:51;4.75;;;4.15;;
52266;SDS011;38223;50.940;4.034;2023-06-14T11:42:23;9.13;;;4.65;;
52266;SDS011;38223;50.940;4.034;2023-06-14T11:44:56;14.15;;;5.00;;
52266;SDS011;38223;50.940;4.034;2023-06-14T11:47:31;8.08;;;5.08;;
52266;SDS011;38223;50.940;4.034;2023-06-14T11:50:05;8.33;;;4.75;;
52266;SDS011;38223;50.940;4.034;2023-06-14T11:52:38;10.28;;;4.70;;
52266;SDS011;38223;50.940;4.034;2023-06-14T11:55:10;9.28;;;4.83;;
52266;SDS011;38223;50.940;4.034;2023-06-14T11:57:46;7.55;;;4.35;;
52266;SDS011;38223;50.940;4.034;2023-06-14T12:00:19;13.03;;;4.65;;
52266;SDS011;38223;50.940;4.034;2023-06-14T12:02:56;21.27;;;4.97;;
52266;SDS011;38223;50.940;4.034;2023-06-14T12:05:27;7.58;;;4.25;;
52266;SDS011;38223;50.940;4.034;2023-06-14T12:08:06;9.13;;;4.05;;
52266;SDS011;38223;50.940;4.034;2023-06-14T12:10:39;10.95;;;4.28;;
52266;SDS011;38223;50.940;4.034;2023-06-14T12:13:10;14.40;;;4.40;;
52266;SDS011;38223;50.940;4.034;2023-06-14T12:15:42;13.90;;;4.53;;
52266;SDS011;38223;50.940;4.034;2023-06-14T12:18:13;5.17;;;4.22;;
52266;SDS011;38223;50.940;4.034;2023-06-14T12:23:42;5.17;;;4.67;;
52266;SDS011;38223;50.940;4.034;2023-06-14T12:26:15;7.15;;;4.05;;
52266;SDS011;38223;50.940;4.034;2023-06-14T12:28:49;4.37;;;3.98;;
52266;SDS011;38223;50.940;4.034;2023-06-14T12:31:20;7.20;;;4.20;;
52266;SDS011;38223;50.940;4.034;2023-06-14T12:33:51;5.83;;;4.12;;
52266;SDS011;38223;50.940;4.034;2023-06-14T12:36:24;6.50;;;4.53;;
52266;SDS011;38223;50.940;4.034;2023-06-14T12:38:54;4.75;;;4.05;;
52266;SDS011;38223;50.940;4.034;2023-06-14T12:41:23;5.03;;;4.10;;
52266;SDS011;38223;50.940;4.034;2023-06-14T12:44:00;5.33;;;4.00;;
52266;SDS011;38223;50.940;4.034;2023-06-14T12:46:31;7.15;;;4.10;;
52266;SDS011;38223;50.940;4.034;2023-06-14T12:49:00;4.85;;;4.15;;
52266;SDS011;38223;50.940;4.034;2023-06-14T12:51:33;5.08;;;4.12;;
52266;SDS011;38223;50.940;4.034;2023-06-14T12:54:03;6.97;;;4.40;;
52266;SDS011;38223;50.940;4.034;2023-06-14T12:59:23;7.58;;;4.33;;
52266;SDS011;38223;50.940;4.034;2023-06-14T13:01:52;6.08;;;4.12;;
52266;SDS011;38223;50.940;4.034;2023-06-14T13:04:22;11.55;;;4.42;;
52266;SDS011;38223;50.940;4.034;2023-06-14T13:06:52;5.92;;;3.90;;
52266;SDS011;38223;50.940;4.034;2023-06-14T13:11:50;8.03;;;4.33;;
52266;SDS011;38223;50.940;4.034;2023-06-14T13:14:20;7.85;;;4.03;;
52266;SDS011;38223;50.940;4.034;2023-06-14T13:16:50;4.95;;;3.92;;
52266;SDS011;38223;50.940;4.034;2023-06-14T13:19:23;7.50;;;4.10;;
52266;SDS011;38223;50.940;4.034;2023-06-14T13:21:51;5.80;;;4.12;;
52266;SDS011;38223;50.940;4.034;2023-06-14T13:24:19;5.20;;;4.08;;
52266;SDS011;38223;50.940;4.034;2023-06-14T13:26:46;5.95;;;3.52;;
52266;SDS011;38223;50.940;4.034;2023-06-14T13:29:20;8.98;;;3.87;;
52266;SDS011;38223;50.940;4.034;2023-06-14T13:31:53;4.95;;;4.15;;
52266;SDS011;38223;50.940;4.034;2023-06-14T13:34:27;6.85;;;4.05;;
52266;SDS011;38223;50.940;4.034;2023-06-14T13:36:57;20.43;;;4.70;;
52266;SDS011;38223;50.940;4.034;2023-06-14T13:39:31;6.25;;;3.98;;
52266;SDS011;38223;50.940;4.034;2023-06-14T13:42:01;7.03;;;4.00;;
52266;SDS011;38223;50.940;4.034;2023-06-14T13:44:33;6.25;;;3.95;;
52266;SDS011;38223;50.940;4.034;2023-06-14T13:47:03;10.28;;;4.20;;
52266;SDS011;38223;50.940;4.034;2023-06-14T13:49:34;11.57;;;4.05;;
52266;SDS011;38223;50.940;4.034;2023-06-14T13:52:06;15.75;;;4.20;;
52266;SDS011;38223;50.940;4.034;2023-06-14T13:54:39;4.60;;;4.03;;
52266;SDS011;38223;50.940;4.034;2023-06-14T13:57:11;9.70;;;3.92;;
52266;SDS011;38223;50.940;4.034;2023-06-14T13:59:44;8.10;;;3.98;;
52266;SDS011;38223;50.940;4.034;2023-06-14T14:02:17;4.15;;;3.77;;
52266;SDS011;38223;50.940;4.034;2023-06-14T14:04:50;7.35;;;3.80;;
52266;SDS011;38223;50.940;4.034;2023-06-14T14:09:48;8.78;;;3.10;;
52266;SDS011;38223;50.940;4.034;2023-06-14T14:12:22;4.67;;;3.85;;
52266;SDS011;38223;50.940;4.034;2023-06-14T14:14:54;4.45;;;3.08;;
52266;SDS011;38223;50.940;4.034;2023-06-14T14:17:27;7.00;;;3.08;;
52266;SDS011;38223;50.940;4.034;2023-06-14T14:19:59;7.72;;;3.50;;
52266;SDS011;38223;50.940;4.034;2023-06-14T14:22:32;7.67;;;3.35;;
52266;SDS011;38223;50.940;4.034;2023-06-14T14:25:04;6.92;;;3.10;;
52266;SDS011;38223;50.940;4.034;2023-06-14T14:27:41;5.17;;;3.00;;
52266;SDS011;38223;50.940;4.034;2023-06-14T14:30:10;5.60;;;3.17;;
52266;SDS011;38223;50.940;4.034;2023-06-14T14:32:47;3.83;;;3.10;;
52266;SDS011;38223;50.940;4.034;2023-06-14T14:35:18;3.02;;;2.37;;
52266;SDS011;38223;50.940;4.034;2023-06-14T14:37:52;7.78;;;3.22;;
52266;SDS011;38223;50.940;4.034;2023-06-14T14:40:22;3.10;;;2.80;;
52266;SDS011;38223;50.940;4.034;2023-06-14T14:42:53;6.85;;;2.85;;
52266;SDS011;38223;50.940;4.034;2023-06-14T14:45:23;7.40;;;3.17;;
52266;SDS011;38223;50.940;4.034;2023-06-14T14:47:54;28.65;;;3.52;;
52266;SDS011;38223;50.940;4.034;2023-06-14T14:50:25;13.28;;;2.80;;
52266;SDS011;38223;50.940;4.034;2023-06-14T14:53:00;4.45;;;2.80;;
52266;SDS011;38223;50.940;4.034;2023-06-14T14:55:29;4.12;;;2.60;;
52266;SDS011;38223;50.940;4.034;2023-06-14T14:57:59;5.87;;;2.33;;
52266;SDS011;38223;50.940;4.034;2023-06-14T15:00:30;3.08;;;2.05;;
52266;SDS011;38223;50.940;4.034;2023-06-14T15:03:01;4.62;;;2.25;;
52266;SDS011;38223;50.940;4.034;2023-06-14T15:05:50;5.50;;;2.40;;
52266;SDS011;38223;50.940;4.034;2023-06-14T15:08:21;4.65;;;1.80;;
52266;SDS011;38223;50.940;4.034;2023-06-14T15:10:51;5.42;;;1.90;;
52266;SDS011;38223;50.940;4.034;2023-06-14T15:13:26;10.08;;;2.20;;
52266;SDS011;38223;50.940;4.034;2023-06-14T15:15:56;10.75;;;2.15;;
52266;SDS011;38223;50.940;4.034;2023-06-14T15:18:31;14.18;;;3.05;;
52266;SDS011;38223;50.940;4.034;2023-06-14T15:21:00;2.67;;;1.60;;
52266;SDS011;38223;50.940;4.034;2023-06-14T15:23:34;3.42;;;1.85;;
52266;SDS011;38223;50.940;4.034;2023-06-14T15:26:04;4.30;;;1.55;;
52266;SDS011;38223;50.940;4.034;2023-06-14T15:28:39;5.53;;;1.60;;
52266;SDS011;38223;50.940;4.034;2023-06-14T15:31:11;9.08;;;1.42;;
52266;SDS011;38223;50.940;4.034;2023-06-14T15:33:42;6.58;;;1.70;;
52266;SDS011;38223;50.940;4.034;2023-06-14T15:36:12;1.80;;;1.40;;
52266;SDS011;38223;50.940;4.034;2023-06-14T15:38:40;1.85;;;1.30;;
52266;SDS011;38223;50.940;4.034;2023-06-14T15:41:11;3.40;;;1.40;;